Time;durP1;ratioP1;P1;durP2;ratioP2;P2;SDS_P1;SDS_P2;PMS_P1;PMS_P2;Temp;Humidity;BMP_temperature;BMP_pressure;BME280_temperature;BME280_humidity;BME280_pressure;Samples;Min_cycle;Max_cycle;Signal;HPM_P1;HPM_P2
2020/12/26 00:01:31;;;;;;;3.45;2.30;;;2.90;1.00;;;;;;5033032;28;20029;-92
2020/12/26 00:03:57;;;;;;;5.45;2.65;;;3.30;1.00;;;;;;5032884;28;20112;-93
2020/12/26 00:06:23;;;;;;;3.83;2.30;;;3.40;1.00;;;;;;5032863;28;20026;-92
2020/12/26 00:08:50;;;;;;;4.97;2.60;;;3.50;1.00;;;;;;5033270;28;20014;-93
2020/12/26 00:11:18;;;;;;;5.90;2.08;;;3.50;1.00;;;;;;5033244;28;20057;-93
2020/12/26 00:13:45;;;;;;;5.28;2.40;;;2.90;1.00;;;;;;5032970;28;20121;-93
2020/12/26 00:16:14;;;;;;;4.32;2.45;;;3.40;1.00;;;;;;5033131;28;20030;-93
2020/12/26 00:18:41;;;;;;;6.25;2.55;;;3.50;1.00;;;;;;5032925;28;20025;-94
2020/12/26 00:21:12;;;;;;;5.97;2.55;;;3.30;1.00;;;;;;5033070;28;20496;-93
2020/12/26 00:23:39;;;;;;;4.60;2.45;;;2.80;1.00;;;;;;5032807;28;20025;-93
2020/12/26 00:26:04;;;;;;;6.10;2.50;;;3.40;1.00;;;;;;5032826;28;20021;-93
2020/12/26 00:28:30;;;;;;;4.28;2.17;;;2.90;1.00;;;;;;5032884;28;20484;-93
2020/12/26 00:30:57;;;;;;;4.60;2.60;;;3.40;1.00;;;;;;5033458;28;20551;-93
2020/12/26 00:33:22;;;;;;;6.32;2.80;;;2.80;1.00;;;;;;5039369;28;20488;-93
2020/12/26 00:35:48;;;;;;;7.00;3.03;;;3.30;1.00;;;;;;5039635;28;20025;-93
2020/12/26 00:38:15;;;;;;;3.78;2.50;;;2.80;1.00;;;;;;5039200;28;20021;-93
2020/12/26 00:40:41;;;;;;;8.00;2.72;;;3.50;1.00;;;;;;5039324;28;20029;-93
2020/12/26 00:43:07;;;;;;;5.75;2.83;;;3.40;1.00;;;;;;5039088;28;20112;-93
2020/12/26 00:45:32;;;;;;;8.10;2.60;;;3.50;1.00;;;;;;5039137;28;20560;-93
2020/12/26 00:47:58;;;;;;;5.28;2.60;;;2.90;1.00;;;;;;5039328;28;20029;-93
2020/12/26 00:50:24;;;;;;;9.20;2.85;;;3.40;1.00;;;;;;5039118;28;20028;-93
2020/12/26 00:52:49;;;;;;;5.70;2.83;;;3.40;1.00;;;;;;5039082;28;20032;-93
2020/12/26 00:55:15;;;;;;;8.90;2.92;;;3.60;1.00;;;;;;5038949;28;20192;-93
2020/12/26 00:57:42;;;;;;;5.97;2.45;;;3.60;1.00;;;;;;5039124;28;20036;-92
2020/12/26 01:00:08;;;;;;;6.90;2.80;;;3.70;1.00;;;;;;5039399;28;20025;-93
2020/12/26 01:02:42;;;;;;;5.00;2.38;;;3.60;1.00;;;;;;5039250;28;20041;-93
2020/12/26 01:05:08;;;;;;;6.57;2.72;;;3.50;1.00;;;;;;5038949;28;20026;-93
2020/12/26 01:07:33;;;;;;;8.23;2.55;;;3.30;1.00;;;;;;5039230;28;20036;-94
2020/12/26 01:09:59;;;;;;;6.05;2.80;;;3.40;1.00;;;;;;5038845;28;20021;-93
2020/12/26 01:12:25;;;;;;;6.47;2.58;;;3.50;1.00;;;;;;5039331;28;20408;-92
2020/12/26 01:14:50;;;;;;;5.63;2.70;;;3.60;1.00;;;;;;5038965;28;20036;-92
2020/12/26 01:17:16;;;;;;;5.40;2.80;;;3.50;1.00;;;;;;5039085;28;20039;-93
2020/12/26 01:19:41;;;;;;;5.13;3.10;;;2.90;1.00;;;;;;5038769;28;20029;-93
2020/12/26 01:22:07;;;;;;;7.10;2.95;;;2.80;1.00;;;;;;5038802;28;20033;-93
2020/12/26 01:24:33;;;;;;;6.20;2.72;;;3.30;1.00;;;;;;5038664;28;20037;-93
2020/12/26 01:26:58;;;;;;;5.63;2.83;;;3.30;1.00;;;;;;5039146;28;20060;-93
2020/12/26 01:29:24;;;;;;;6.53;2.78;;;3.50;1.00;;;;;;5039095;28;20105;-93
2020/12/26 01:31:51;;;;;;;5.18;2.78;;;3.40;1.00;;;;;;5038431;28;20077;-93
2020/12/26 01:34:18;;;;;;;6.70;2.60;;;3.30;1.00;;;;;;5038697;28;20025;-93
2020/12/26 01:36:47;;;;;;;6.35;2.78;;;3.10;1.00;;;;;;5038683;28;20026;-93
2020/12/26 01:39:12;;;;;;;6.80;2.83;;;3.20;1.00;;;;;;5038605;28;20026;-93
2020/12/26 01:41:38;;;;;;;9.18;3.20;;;3.40;1.00;;;;;;5038980;28;20029;-93
2020/12/26 01:44:04;;;;;;;5.25;2.97;;;3.10;1.00;;;;;;5034830;28;20366;-93
2020/12/26 01:46:31;;;;;;;4.78;2.80;;;3.10;1.00;;;;;;5035462;28;20061;-93
2020/12/26 01:49:01;;;;;;;8.43;3.15;;;2.80;1.00;;;;;;5035764;28;20100;-93
2020/12/26 01:51:30;;;;;;;6.80;3.20;;;2.70;1.00;;;;;;5035279;28;20025;-93
2020/12/26 01:53:57;;;;;;;7.20;3.03;;;3.20;1.00;;;;;;5035701;28;20080;-93
2020/12/26 01:56:23;;;;;;;6.35;3.10;;;2.70;1.00;;;;;;5035725;28;20392;-93
2020/12/26 01:58:48;;;;;;;6.10;3.03;;;2.60;1.00;;;;;;5034897;28;20115;-93
2020/12/26 02:01:14;;;;;;;5.82;3.10;;;2.80;1.00;;;;;;5035260;28;20532;-92
2020/12/26 02:03:40;;;;;;;5.72;2.50;;;3.20;1.00;;;;;;5035451;28;20547;-93
2020/12/26 02:06:07;;;;;;;7.22;3.22;;;3.40;1.00;;;;;;5035108;28;20061;-93
2020/12/26 02:08:34;;;;;;;7.43;3.00;;;2.80;1.00;;;;;;5035200;28;20080;-93
2020/12/26 02:11:03;;;;;;;9.27;3.05;;;3.20;1.00;;;;;;5035420;28;20013;-93
2020/12/26 02:13:28;;;;;;;9.63;3.25;;;3.30;1.00;;;;;;5034919;28;20021;-93
2020/12/26 02:16:08;;;;;;;6.72;3.30;;;3.20;1.00;;;;;;5034833;28;20036;-93
2020/12/26 02:18:35;;;;;;;6.07;3.10;;;3.00;1.00;;;;;;5035067;28;20025;-93
2020/12/26 02:21:01;;;;;;;7.35;3.40;;;3.00;1.00;;;;;;5035170;28;20029;-93
2020/12/26 02:23:27;;;;;;;7.00;3.30;;;2.80;1.00;;;;;;5034777;28;20033;-92
2020/12/26 02:25:57;;;;;;;6.50;3.10;;;3.30;1.00;;;;;;5034750;28;20025;-93
2020/12/26 02:28:24;;;;;;;9.07;3.08;;;3.40;1.00;;;;;;5034886;28;20116;-93
2020/12/26 02:30:53;;;;;;;6.10;3.47;;;3.30;1.00;;;;;;5034599;28;20028;-93
2020/12/26 02:33:19;;;;;;;9.25;3.30;;;2.70;1.00;;;;;;5034736;28;20046;-93
2020/12/26 02:35:49;;;;;;;6.18;3.20;;;3.00;1.00;;;;;;5034669;28;20087;-93
2020/12/26 02:38:18;;;;;;;4.68;3.00;;;2.70;1.00;;;;;;5034690;28;20034;-93
2020/12/26 02:40:49;;;;;;;6.35;2.92;;;3.20;1.00;;;;;;5034710;28;20393;-96
2020/12/26 02:43:26;;;;;;;6.97;3.45;;;2.70;1.00;;;;;;5034885;28;20139;-95
2020/12/26 02:45:53;;;;;;;4.28;3.03;;;3.10;1.00;;;;;;5034449;28;20125;-95
2020/12/26 02:48:19;;;;;;;4.90;3.00;;;3.10;1.00;;;;;;5034738;28;20030;-95
2020/12/26 02:50:44;;;;;;;11.68;3.30;;;2.50;1.00;;;;;;5034198;28;20021;-95
2020/12/26 02:53:10;;;;;;;7.57;3.35;;;2.50;1.00;;;;;;5034663;28;20025;-95
2020/12/26 02:55:36;;;;;;;7.80;3.58;;;2.60;1.00;;;;;;5033836;28;20443;-96
2020/12/26 02:58:03;;;;;;;8.13;2.90;;;3.10;1.00;;;;;;5034251;28;20033;-95
2020/12/26 03:00:29;;;;;;;5.30;3.40;;;3.10;1.00;;;;;;5034710;28;20021;-95
2020/12/26 03:02:54;;;;;;;8.18;3.00;;;2.90;1.00;;;;;;5034292;28;20026;-96
2020/12/26 03:05:20;;;;;;;6.78;3.10;;;3.10;1.00;;;;;;5033867;28;20022;-96
2020/12/26 03:07:46;;;;;;;8.15;3.30;;;3.10;1.00;;;;;;5034091;28;20033;-95
2020/12/26 03:10:11;;;;;;;5.40;2.83;;;2.40;1.00;;;;;;5033991;28;20084;-95
2020/12/26 03:12:37;;;;;;;8.95;3.15;;;2.90;1.00;;;;;;5033879;28;20026;-96
2020/12/26 03:15:03;;;;;;;6.07;3.05;;;2.70;1.00;;;;;;5034116;28;20065;-95
2020/12/26 03:17:29;;;;;;;4.20;2.90;;;2.20;1.00;;;;;;5033806;28;20488;-96
2020/12/26 03:19:55;;;;;;;5.72;3.20;;;2.70;1.00;;;;;;5033583;28;20116;-95
2020/12/26 03:22:21;;;;;;;7.05;3.38;;;2.60;1.00;;;;;;5033913;28;20120;-96
2020/12/26 03:24:46;;;;;;;5.28;3.28;;;2.10;1.00;;;;;;5033676;28;20029;-96
2020/12/26 03:27:12;;;;;;;8.38;3.67;;;2.70;1.00;;;;;;5033609;28;20025;-96
2020/12/26 03:29:37;;;;;;;7.97;3.15;;;2.60;1.00;;;;;;5033747;28;20025;-95
2020/12/26 03:32:03;;;;;;;8.50;3.40;;;2.60;1.00;;;;;;5033155;28;20527;-95
2020/12/26 03:34:29;;;;;;;6.40;3.25;;;2.10;1.00;;;;;;5033387;28;20084;-96
2020/12/26 03:36:54;;;;;;;7.32;3.05;;;2.60;1.00;;;;;;5033493;28;20534;-95
2020/12/26 03:39:20;;;;;;;8.00;3.50;;;2.40;1.00;;;;;;5033378;28;20369;-95
2020/12/26 03:41:46;;;;;;;5.45;3.30;;;2.40;1.00;;;;;;5033471;28;20477;-95
2020/12/26 03:44:11;;;;;;;10.50;3.28;;;2.50;1.00;;;;;;5033433;28;20025;-95
2020/12/26 03:46:37;;;;;;;7.25;3.72;;;2.00;1.00;;;;;;5033155;28;20037;-95
2020/12/26 03:49:03;;;;;;;7.70;3.25;;;2.40;1.00;;;;;;5033331;28;20022;-96
2020/12/26 03:51:29;;;;;;;8.30;3.08;;;2.60;1.00;;;;;;5033403;28;20389;-95
2020/12/26 03:53:54;;;;;;;8.20;3.33;;;2.50;1.00;;;;;;5033094;28;20025;-95
2020/12/26 03:56:20;;;;;;;5.70;2.83;;;2.00;1.00;;;;;;5033209;28;20491;-95
2020/12/26 03:58:46;;;;;;;4.68;3.08;;;2.50;1.00;;;;;;5033139;28;20459;-95
2020/12/26 04:01:12;;;;;;;6.75;2.90;;;2.60;1.00;;;;;;5033062;28;20029;-95
2020/12/26 04:03:38;;;;;;;7.03;3.28;;;2.60;1.00;;;;;;5032908;28;20025;-95
2020/12/26 04:06:03;;;;;;;8.30;3.40;;;2.00;1.00;;;;;;5032489;28;20030;-95
2020/12/26 04:08:30;;;;;;;5.00;3.17;;;1.90;1.00;;;;;;5035914;28;20028;-95
2020/12/26 04:10:56;;;;;;;7.93;3.22;;;2.50;1.00;;;;;;5038296;28;20025;-96
2020/12/26 04:13:22;;;;;;;7.03;3.35;;;2.00;1.00;;;;;;5032846;28;20028;-96
2020/12/26 04:15:47;;;;;;;5.72;3.33;;;2.00;1.00;;;;;;5032749;28;20029;-95
2020/12/26 04:18:13;;;;;;;7.00;3.55;;;2.00;1.00;;;;;;5032740;28;20067;-95
2020/12/26 04:20:39;;;;;;;5.22;3.33;;;1.90;1.00;;;;;;5032969;28;20026;-95
2020/12/26 04:23:04;;;;;;;4.60;2.95;;;1.90;1.00;;;;;;5032812;28;20026;-96
2020/12/26 04:25:30;;;;;;;4.93;3.08;;;2.40;1.00;;;;;;5032574;28;20026;-95
2020/12/26 04:27:57;;;;;;;6.38;3.38;;;1.90;1.00;;;;;;5032757;28;20027;-95
2020/12/26 04:30:23;;;;;;;7.18;3.30;;;1.90;1.00;;;;;;5032812;28;20022;-95
2020/12/26 04:32:49;;;;;;;6.78;3.60;;;1.90;1.00;;;;;;5032618;28;20037;-95
2020/12/26 04:35:18;;;;;;;7.63;3.83;;;1.90;1.00;;;;;;5033057;28;20025;-96
2020/12/26 04:37:43;;;;;;;6.45;3.40;;;1.90;1.00;;;;;;5032871;28;20030;-95
2020/12/26 04:40:09;;;;;;;5.55;3.33;;;1.80;1.00;;;;;;5032647;28;20029;-95
2020/12/26 04:42:35;;;;;;;7.18;3.30;;;2.50;1.00;;;;;;5032661;28;20030;-95
2020/12/26 04:45:00;;;;;;;6.85;3.72;;;1.80;1.00;;;;;;5032424;28;20120;-96
2020/12/26 04:47:35;;;;;;;4.57;3.05;;;2.40;1.00;;;;;;5032613;28;20021;-95
2020/12/26 04:50:02;;;;;;;5.10;3.47;;;2.30;1.00;;;;;;5032640;28;20028;-95
2020/12/26 04:52:30;;;;;;;7.63;3.35;;;2.40;1.00;;;;;;5032606;28;20481;-96
2020/12/26 04:54:57;;;;;;;8.35;3.28;;;2.20;1.00;;;;;;5033006;28;20037;-96
2020/12/26 04:57:22;;;;;;;7.70;3.70;;;1.80;1.00;;;;;;5032456;28;20036;-95
2020/12/26 04:59:48;;;;;;;7.22;3.30;;;1.80;1.00;;;;;;5032301;28;20124;-96
2020/12/26 05:02:15;;;;;;;6.20;3.42;;;2.30;1.00;;;;;;5032624;28;20029;-96
2020/12/26 05:04:44;;;;;;;6.97;3.53;;;1.90;1.00;;;;;;5032513;28;20026;-96
2020/12/26 05:07:11;;;;;;;7.78;3.38;;;1.80;1.00;;;;;;5032316;28;20025;-95
2020/12/26 05:09:36;;;;;;;6.65;3.40;;;1.90;1.00;;;;;;5032300;28;20025;-96
2020/12/26 05:12:03;;;;;;;7.15;3.45;;;2.40;1.00;;;;;;5049745;28;20028;-96
2020/12/26 05:14:30;;;;;;;7.97;3.90;;;2.10;1.00;;;;;;5052113;28;20048;-96
2020/12/26 05:16:57;;;;;;;7.05;3.30;;;1.90;1.00;;;;;;5052587;28;20122;-96
2020/12/26 05:19:23;;;;;;;7.88;4.35;;;1.90;1.00;;;;;;5056345;28;20033;-96
2020/12/26 05:21:54;;;;;;;6.75;4.30;;;1.90;1.00;;;;;;5055814;28;20025;-96
2020/12/26 05:24:20;;;;;;;6.07;3.80;;;1.80;1.00;;;;;;5042966;28;20099;-96
2020/12/26 05:26:48;;;;;;;5.25;3.22;;;1.80;1.00;;;;;;5035650;28;20044;-95
2020/12/26 05:29:15;;;;;;;8.32;4.20;;;2.00;1.00;;;;;;5035968;28;20103;-95
2020/12/26 05:31:59;;;;;;;6.32;3.95;;;2.30;1.00;;;;;;5035744;28;20101;-95
2020/12/26 05:34:35;;;;;;;7.28;3.90;;;1.80;1.00;;;;;;5036038;28;20544;-95
2020/12/26 05:37:02;;;;;;;6.25;3.88;;;1.70;1.00;;;;;;5035778;28;20025;-95
2020/12/26 05:39:34;;;;;;;9.40;3.47;;;1.70;1.00;;;;;;5035983;28;20027;-95
2020/12/26 05:42:01;;;;;;;6.72;3.75;;;1.70;1.00;;;;;;5035898;28;20022;-96
2020/12/26 05:44:31;;;;;;;7.80;3.35;;;1.70;1.00;;;;;;5035772;28;20029;-96
2020/12/26 05:46:59;;;;;;;8.15;3.50;;;2.40;1.00;;;;;;5035819;28;20060;-95
2020/12/26 05:49:28;;;;;;;9.43;3.63;;;1.60;1.00;;;;;;5035704;28;20025;-95
2020/12/26 05:51:57;;;;;;;7.95;3.47;;;1.70;1.00;;;;;;5035247;28;20032;-96
2020/12/26 05:54:24;;;;;;;5.47;3.45;;;2.00;1.00;;;;;;5035664;28;20052;-96
2020/12/26 05:57:02;;;;;;;10.18;3.85;;;2.30;1.00;;;;;;5035666;28;20124;-96
2020/12/26 05:59:28;;;;;;;9.20;3.80;;;1.60;1.00;;;;;;5035384;28;20409;-95
2020/12/26 06:01:55;;;;;;;5.95;3.75;;;2.30;1.00;;;;;;5035056;28;20025;-96
2020/12/26 06:04:21;;;;;;;5.38;3.13;;;1.70;1.00;;;;;;5035079;28;20101;-95
2020/12/26 06:06:52;;;;;;;9.52;4.10;;;2.40;1.00;;;;;;5035067;28;20132;-95
2020/12/26 06:09:21;;;;;;;8.43;3.97;;;1.80;1.00;;;;;;5032434;28;20767;-95
2020/12/26 06:11:48;;;;;;;10.63;3.92;;;1.80;1.00;;;;;;5015459;28;20180;-95
2020/12/26 06:14:18;;;;;;;9.02;3.90;;;1.80;1.00;;;;;;5015270;28;20049;-95
2020/12/26 06:16:55;;;;;;;7.15;3.72;;;2.30;1.00;;;;;;5024693;28;20124;-95
2020/12/26 06:19:27;;;;;;;7.57;3.72;;;1.70;1.00;;;;;;5015152;28;20092;-95
2020/12/26 06:21:53;;;;;;;6.22;3.70;;;2.00;1.00;;;;;;5015556;28;20050;-95
2020/12/26 06:24:19;;;;;;;7.82;3.50;;;2.20;1.00;;;;;;5020676;28;20064;-95
2020/12/26 06:26:47;;;;;;;7.80;4.03;;;2.20;1.00;;;;;;5054561;28;20033;-95
2020/12/26 06:29:18;;;;;;;5.93;3.78;;;2.20;1.00;;;;;;5051619;28;20025;-95
2020/12/26 06:31:45;;;;;;;6.35;3.92;;;1.70;1.00;;;;;;5034466;28;20041;-95
2020/12/26 06:34:13;;;;;;;7.15;3.92;;;1.80;1.00;;;;;;5034813;28;20029;-95
2020/12/26 06:36:40;;;;;;;12.48;4.47;;;2.10;1.00;;;;;;5034487;28;20029;-95
2020/12/26 06:39:30;;;;;;;7.30;3.85;;;1.60;1.00;;;;;;5038630;28;20017;-96
2020/12/26 06:42:19;;;;;;;6.57;3.85;;;2.30;1.00;;;;;;5061356;28;20040;-95
2020/12/26 06:44:48;;;;;;;9.63;4.00;;;1.60;1.00;;;;;;5054327;28;20067;-95
2020/12/26 06:47:39;;;;;;;8.52;4.40;;;1.60;1.00;;;;;;5054192;28;20029;-96
2020/12/26 06:50:28;;;;;;;7.45;3.83;;;1.60;1.00;;;;;;5054587;28;20022;-95
2020/12/26 06:52:54;;;;;;;9.82;4.30;;;1.60;1.00;;;;;;5054453;28;20021;-95
2020/12/26 06:55:42;;;;;;;5.22;3.72;;;1.60;1.00;;;;;;5054260;28;20025;-96
2020/12/26 06:58:22;;;;;;;7.97;4.18;;;1.60;1.00;;;;;;5054069;28;20033;-96
2020/12/26 07:00:48;;;;;;;8.77;4.22;;;1.50;1.00;;;;;;5054056;28;20168;-96
2020/12/26 07:03:18;;;;;;;7.63;4.43;;;1.70;1.00;;;;;;5051367;28;20123;-96
2020/12/26 07:05:45;;;;;;;7.90;4.18;;;1.60;1.00;;;;;;5034077;28;20021;-95
2020/12/26 07:08:31;;;;;;;10.23;4.35;;;1.50;1.00;;;;;;5033834;28;20026;-96
2020/12/26 07:11:22;;;;;;;8.07;3.50;;;1.50;1.00;;;;;;5033814;28;20025;-95
2020/12/26 07:13:52;;;;;;;9.75;4.22;;;1.50;1.00;;;;;;5033824;28;20168;-95
2020/12/26 07:16:37;;;;;;;9.80;4.30;;;1.50;1.00;;;;;;5034111;28;20473;-95
2020/12/26 07:19:21;;;;;;;7.65;3.63;;;1.50;1.00;;;;;;5033906;28;20036;-95
2020/12/26 07:21:55;;;;;;;9.45;4.15;;;1.80;1.00;;;;;;5033861;28;20492;-95
2020/12/26 07:24:35;;;;;;;7.88;3.97;;;1.60;1.00;;;;;;5033596;28;20038;-96
2020/12/26 07:27:15;;;;;;;8.45;3.78;;;1.50;1.00;;;;;;5033558;28;20033;-95
2020/12/26 07:29:51;;;;;;;10.23;3.90;;;2.00;1.00;;;;;;5034003;28;20025;-95
2020/12/26 07:32:35;;;;;;;6.00;3.55;;;1.60;1.00;;;;;;5033344;28;20144;-95
2020/12/26 07:35:02;;;;;;;6.32;3.97;;;2.00;1.00;;;;;;5013852;28;20544;-95
2020/12/26 07:37:27;;;;;;;7.00;4.85;;;2.10;1.00;;;;;;5013574;28;20030;-96
2020/12/26 07:39:53;;;;;;;8.95;4.07;;;2.10;1.00;;;;;;5013638;28;20032;-95
2020/12/26 07:42:22;;;;;;;8.45;4.28;;;1.60;1.00;;;;;;5012823;28;20026;-95
2020/12/26 07:44:48;;;;;;;10.15;4.20;;;2.10;1.00;;;;;;5013739;28;20030;-95
2020/12/26 07:47:14;;;;;;;8.35;3.78;;;1.60;1.00;;;;;;5014391;28;20478;-95
2020/12/26 07:49:40;;;;;;;7.63;4.40;;;1.60;1.00;;;;;;5033258;28;20022;-96
2020/12/26 07:52:07;;;;;;;7.30;4.10;;;1.70;1.00;;;;;;5033148;28;20035;-95
2020/12/26 07:54:34;;;;;;;8.20;4.00;;;2.80;1.00;;;;;;5033581;28;20084;-96
2020/12/26 07:56:59;;;;;;;6.65;3.72;;;3.50;1.00;;;;;;5033274;28;20040;-94
2020/12/26 07:59:25;;;;;;;7.85;3.70;;;3.60;1.00;;;;;;5029217;28;20021;-96
2020/12/26 08:01:52;;;;;;;8.52;3.85;;;4.70;1.00;;;;;;5039489;28;20034;-96
2020/12/26 08:04:22;;;;;;;9.05;3.95;;;5.50;1.00;;;;;;5040124;28;20028;-96
2020/12/26 08:06:49;;;;;;;8.35;3.80;;;6.90;1.00;;;;;;5042090;28;20025;-96
2020/12/26 08:09:16;;;;;;;6.90;4.03;;;7.50;1.00;;;;;;5035143;28;20029;-96
2020/12/26 08:11:43;;;;;;;6.70;3.72;;;8.10;99.90;;;;;;5033648;28;20018;-96
2020/12/26 08:14:10;;;;;;;5.28;3.25;;;8.10;99.90;;;;;;5033007;28;20025;-95
2020/12/26 08:16:36;;;;;;;9.07;3.92;;;8.60;99.90;;;;;;5033139;28;20033;-95
2020/12/26 08:19:04;;;;;;;8.25;3.78;;;7.50;99.90;;;;;;5031097;28;20026;-94
2020/12/26 08:21:31;;;;;;;11.77;4.38;;;7.20;1.00;;;;;;5013307;28;20070;-95
2020/12/26 08:24:00;;;;;;;12.80;6.20;;;7.00;1.00;;;;;;5049461;28;20083;-96
2020/12/26 08:26:27;;;;;;;51.33;26.13;;;7.20;1.00;;;;;;5052994;28;20104;-96
2020/12/26 08:29:02;;;;;;;12.27;6.60;;;8.80;99.90;;;;;;5052987;28;20021;-95
2020/12/26 08:31:30;;;;;;;9.32;5.97;;;9.20;99.90;;;;;;5054634;28;20119;-95
2020/12/26 08:34:15;;;;;;;17.73;11.05;;;11.10;99.90;;;;;;5056002;28;20027;-96
2020/12/26 08:36:47;;;;;;;10.82;6.82;;;13.00;99.90;;;;;;5055653;28;20031;-96
2020/12/26 08:39:18;;;;;;;9.48;5.40;;;14.10;99.90;;;;;;5055549;28;20111;-94
2020/12/26 08:41:45;;;;;;;11.88;6.45;;;14.40;99.90;;;;;;5056100;28;20028;-95
2020/12/26 08:44:12;;;;;;;5.80;3.50;;;15.10;99.90;;;;;;5039746;28;20021;-95
2020/12/26 08:46:45;;;;;;;8.40;3.90;;;15.40;99.90;;;;;;5031891;28;20029;-95
2020/12/26 08:49:13;;;;;;;15.43;10.77;;;15.10;99.90;;;;;;5016703;28;20542;-95
2020/12/26 08:51:43;;;;;;;7.55;3.90;;;16.40;99.90;;;;;;5031694;28;20106;-94
2020/12/26 08:54:23;;;;;;;8.65;5.88;;;16.00;99.90;;;;;;5033193;28;20025;-95
2020/12/26 08:56:49;;;;;;;9.95;4.05;;;16.50;99.90;;;;;;5019435;28;20029;-91
2020/12/26 08:59:29;;;;;;;6.28;3.65;;;18.40;99.90;;;;;;5054014;28;20070;-95
2020/12/26 09:07:24;;;;;;;9.45;5.53;;;16.50;99.90;;;;;;5056342;28;20053;-88
2020/12/26 09:09:49;;;;;;;6.10;3.85;;;16.80;99.90;;;;;;5037583;28;20060;-87
2020/12/26 09:12:15;;;;;;;6.53;3.65;;;17.90;99.90;;;;;;5039283;28;20025;-93
2020/12/26 09:14:41;;;;;;;6.05;3.75;;;18.30;99.90;;;;;;5038345;28;20021;-94
2020/12/26 09:17:08;;;;;;;6.97;3.58;;;19.00;99.90;;;;;;5038567;28;20036;-89
2020/12/26 09:19:47;;;;;;;5.97;3.90;;;19.50;99.90;;;;;;5037846;28;20395;-87
2020/12/26 09:22:13;;;;;;;8.25;3.60;;;20.00;99.90;;;;;;5055379;28;20108;-93
2020/12/26 09:24:39;;;;;;;5.95;3.70;;;19.20;99.90;;;;;;5045488;28;20021;-93
2020/12/26 09:27:16;;;;;;;6.50;3.63;;;19.60;99.90;;;;;;5055796;28;20027;-94
2020/12/26 09:29:41;;;;;;;7.38;4.68;;;19.00;99.90;;;;;;5048182;28;20021;-93
2020/12/26 09:32:07;;;;;;;5.90;3.97;;;19.00;99.90;;;;;;5048139;28;20035;-94
2020/12/26 09:34:36;;;;;;;5.78;4.00;;;19.20;99.90;;;;;;5038871;28;20388;-91
2020/12/26 09:37:07;;;;;;;5.13;3.90;;;20.30;99.90;;;;;;5041034;28;20119;-93
2020/12/26 09:39:33;;;;;;;4.25;3.83;;;20.70;99.90;;;;;;5033862;28;20021;-92
2020/12/26 09:41:58;;;;;;;8.93;4.68;;;20.70;99.90;;;;;;5038552;28;20086;-92
2020/12/26 09:44:24;;;;;;;6.65;4.22;;;20.50;99.90;;;;;;5038297;28;20025;-92
2020/12/26 09:46:57;;;;;;;4.82;3.55;;;20.20;99.90;;;;;;5038049;28;20029;-90
2020/12/26 09:49:22;;;;;;;5.72;3.90;;;19.00;99.90;;;;;;5038240;28;20013;-90
2020/12/26 09:51:48;;;;;;;6.13;4.30;;;19.70;99.90;;;;;;5051162;28;20521;-91
2020/12/26 09:54:14;;;;;;;7.00;3.85;;;21.80;99.90;;;;;;5057775;28;20550;-92
2020/12/26 09:56:39;;;;;;;5.57;3.65;;;20.20;99.90;;;;;;5044525;28;20039;-92
2020/12/26 09:59:05;;;;;;;5.13;3.67;;;18.80;99.90;;;;;;5038125;28;20021;-92
2020/12/26 10:01:30;;;;;;;6.35;3.63;;;20.80;99.90;;;;;;5038159;28;20079;-93
2020/12/26 10:03:56;;;;;;;5.78;3.80;;;19.30;99.90;;;;;;5036718;28;20113;-92
2020/12/26 10:06:22;;;;;;;4.50;3.78;;;18.10;99.90;;;;;;5038961;28;20045;-90
2020/12/26 10:08:48;;;;;;;6.13;3.78;;;17.90;99.90;;;;;;5046582;28;20028;-91
2020/12/26 10:11:15;;;;;;;6.10;3.85;;;18.70;99.90;;;;;;5043982;28;20044;-92
2020/12/26 10:13:42;;;;;;;5.70;3.30;;;18.40;99.90;;;;;;5037383;28;20554;-89
2020/12/26 10:16:08;;;;;;;7.88;3.80;;;19.40;99.90;;;;;;5037832;28;20029;-90
2020/12/26 10:18:35;;;;;;;7.15;3.78;;;20.70;99.90;;;;;;5037936;28;20024;-90
2020/12/26 10:21:00;;;;;;;6.55;4.68;;;19.50;99.90;;;;;;5039197;28;20033;-95
2020/12/26 10:23:27;;;;;;;5.68;3.67;;;19.00;99.90;;;;;;5039588;28;20092;-89
2020/12/26 10:25:53;;;;;;;6.60;4.05;;;18.20;99.90;;;;;;5057427;28;20035;-92
2020/12/26 10:28:19;;;;;;;7.32;4.57;;;18.70;99.90;;;;;;5042213;28;20025;-87
2020/12/26 10:30:47;;;;;;;8.02;4.00;;;18.10;99.90;;;;;;5019118;28;20029;-88
2020/12/26 10:33:13;;;;;;;5.38;3.50;;;20.10;99.90;;;;;;5023706;28;20029;-89
2020/12/26 10:35:45;;;;;;;5.68;3.33;;;19.70;99.90;;;;;;5033249;28;20024;-91
2020/12/26 10:38:10;;;;;;;6.53;4.13;;;20.30;99.90;;;;;;5055406;28;20025;-91
2020/12/26 10:40:36;;;;;;;5.38;3.80;;;20.80;99.90;;;;;;5035179;28;20040;-90
2020/12/26 10:43:01;;;;;;;6.68;4.00;;;20.40;99.90;;;;;;5036814;28;20021;-90
2020/12/26 10:45:27;;;;;;;7.75;5.57;;;20.60;99.90;;;;;;5052536;28;20436;-90
2020/12/26 10:47:52;;;;;;;7.88;4.38;;;20.00;99.90;;;;;;5036976;28;20443;-90
2020/12/26 10:50:18;;;;;;;5.85;4.20;;;15.30;99.90;;;;;;5053958;28;20071;-93
2020/12/26 10:52:44;;;;;;;5.80;4.07;;;16.30;99.90;;;;;;5038233;28;20071;-93
2020/12/26 10:55:16;;;;;;;7.93;4.30;;;19.20;99.90;;;;;;5057055;28;20017;-93
2020/12/26 10:57:43;;;;;;;5.10;3.85;;;15.40;99.90;;;;;;5056692;28;20034;-92
2020/12/26 11:00:10;;;;;;;6.38;3.95;;;12.40;99.90;;;;;;5056964;28;20028;-92
2020/12/26 11:02:35;;;;;;;7.80;4.05;;;12.00;99.90;;;;;;5057209;28;20024;-93
2020/12/26 11:05:01;;;;;;;6.80;4.20;;;13.80;99.90;;;;;;5056670;28;20078;-91
2020/12/26 11:07:26;;;;;;;5.93;4.18;;;13.70;99.90;;;;;;5053121;28;20028;-90
2020/12/26 11:09:52;;;;;;;7.35;3.58;;;13.70;99.90;;;;;;5036524;28;20021;-90
2020/12/26 11:12:18;;;;;;;5.30;3.60;;;17.40;99.90;;;;;;5044531;28;20024;-91
2020/12/26 11:14:43;;;;;;;5.88;4.05;;;16.50;99.90;;;;;;5053433;28;20480;-91
2020/12/26 11:17:09;;;;;;;5.03;3.20;;;18.60;99.90;;;;;;5054781;28;20101;-93
2020/12/26 11:19:34;;;;;;;5.43;3.83;;;19.50;99.90;;;;;;5037478;28;20025;-94
2020/12/26 11:22:00;;;;;;;4.20;3.33;;;15.80;99.90;;;;;;5038889;28;20025;-96
2020/12/26 11:24:26;;;;;;;7.13;3.38;;;15.30;99.90;;;;;;5038708;28;20017;-96
2020/12/26 11:26:51;;;;;;;7.28;4.07;;;15.30;99.90;;;;;;5036784;28;20033;-90
2020/12/26 11:29:17;;;;;;;5.05;3.28;;;14.50;99.90;;;;;;5055400;28;20021;-95
2020/12/26 11:31:43;;;;;;;5.13;3.00;;;15.90;99.90;;;;;;5037281;28;20029;-90
2020/12/26 11:34:11;;;;;;;5.20;3.78;;;14.60;99.90;;;;;;5036791;28;20480;-95
2020/12/26 11:36:37;;;;;;;4.65;3.38;;;14.90;99.90;;;;;;5037144;28;20027;-93
2020/12/26 11:39:03;;;;;;;8.05;4.05;;;13.20;99.90;;;;;;5036921;28;20037;-95
2020/12/26 11:41:29;;;;;;;5.47;3.47;;;14.70;99.90;;;;;;5036202;28;20036;-91
2020/12/26 11:43:56;;;;;;;3.97;3.47;;;15.70;99.90;;;;;;5036469;28;20071;-91
2020/12/26 11:46:23;;;;;;;5.00;3.45;;;15.40;99.90;;;;;;5041430;28;20037;-96
2020/12/26 11:48:49;;;;;;;6.25;3.15;;;16.40;99.90;;;;;;5044506;28;20120;-96
2020/12/26 11:51:15;;;;;;;4.60;3.17;;;16.50;99.90;;;;;;5036472;28;20480;-96
2020/12/26 11:53:41;;;;;;;4.95;3.22;;;17.90;99.90;;;;;;5037058;28;20036;-90
2020/12/26 11:56:08;;;;;;;4.30;3.30;;;18.40;99.90;;;;;;5066750;28;20151;-90
2020/12/26 11:58:34;;;;;;;7.97;3.80;;;19.20;99.90;;;;;;5055428;28;20115;-91
2020/12/26 12:01:00;;;;;;;5.30;3.40;;;20.00;99.90;;;;;;5048976;28;20108;-92
2020/12/26 12:03:25;;;;;;;6.60;3.85;;;17.80;99.90;;;;;;5035413;28;20025;-93
2020/12/26 12:05:51;;;;;;;6.40;4.57;;;15.20;99.90;;;;;;5035241;28;20522;-91
2020/12/26 12:08:19;;;;;;;5.80;3.63;;;14.10;99.90;;;;;;5067534;28;20024;-96
2020/12/26 12:10:45;;;;;;;5.57;3.42;;;14.20;99.90;;;;;;5047899;28;20025;-94
2020/12/26 12:13:23;;;;;;;5.90;3.75;;;13.50;99.90;;;;;;5034948;28;20656;-91
2020/12/26 12:15:49;;;;;;;6.32;3.92;;;12.10;99.90;;;;;;5034154;28;20036;-90
2020/12/26 12:18:16;;;;;;;5.22;4.40;;;11.40;99.90;;;;;;5046078;28;20025;-94
2020/12/26 12:20:41;;;;;;;5.88;3.03;;;12.40;99.90;;;;;;5040562;28;20028;-91
2020/12/26 12:23:07;;;;;;;4.95;3.60;;;13.30;99.90;;;;;;5052139;28;20396;-94
2020/12/26 12:25:42;;;;;;;6.38;3.58;;;12.40;99.90;;;;;;5039394;28;20032;-96
2020/12/26 12:28:07;;;;;;;5.15;3.00;;;14.20;99.90;;;;;;5047936;28;20514;-93
2020/12/26 12:30:33;;;;;;;3.83;3.15;;;14.00;99.90;;;;;;5043535;28;20028;-96
2020/12/26 12:32:58;;;;;;;4.35;3.20;;;13.00;99.90;;;;;;5037118;28;20032;-95
2020/12/26 12:35:24;;;;;;;4.93;3.28;;;12.40;99.90;;;;;;5018362;28;20033;-94
2020/12/26 12:37:51;;;;;;;4.38;3.13;;;12.20;99.90;;;;;;5016104;28;20033;-94
2020/12/26 12:40:17;;;;;;;4.32;3.35;;;11.90;99.90;;;;;;5016556;28;20036;-93
2020/12/26 12:42:43;;;;;;;5.57;3.70;;;11.30;99.90;;;;;;5016674;28;20033;-92
2020/12/26 12:45:09;;;;;;;5.97;3.20;;;10.90;99.90;;;;;;5015562;28;20527;-93
2020/12/26 12:47:35;;;;;;;6.28;3.38;;;10.10;99.90;;;;;;5033657;28;20385;-94
2020/12/26 12:50:00;;;;;;;5.30;3.60;;;10.40;99.90;;;;;;5016247;28;20101;-94
2020/12/26 12:52:26;;;;;;;4.18;2.90;;;10.40;99.90;;;;;;5016294;28;20036;-94
2020/12/26 12:54:52;;;;;;;4.80;2.95;;;11.50;99.90;;;;;;5024379;28;20032;-92
2020/12/26 12:57:17;;;;;;;5.40;3.05;;;11.50;99.90;;;;;;5055698;28;20032;-93
2020/12/26 12:59:43;;;;;;;5.18;3.17;;;12.50;99.90;;;;;;5055812;28;20085;-93
2020/12/26 13:02:09;;;;;;;6.30;2.85;;;13.40;99.90;;;;;;5055513;28;20086;-91
2020/12/26 13:04:36;;;;;;;5.45;3.60;;;11.60;99.90;;;;;;5055570;28;20112;-90
2020/12/26 13:07:02;;;;;;;4.82;3.08;;;11.90;99.90;;;;;;5039276;28;20049;-92
2020/12/26 13:09:28;;;;;;;3.53;2.88;;;11.30;99.90;;;;;;5035476;28;20053;-93